sensor_id;sensor_type;location;lat;lon;timestamp;P1;durP1;ratioP1;P2;durP2;ratioP2
8714;SDS011;4394;51.208;8.904;2023-06-22T00:00:53;18.23;;;16.47;;
8714;SDS011;4394;51.208;8.904;2023-06-22T00:03:43;18.43;;;16.63;;
8714;SDS011;4394;51.208;8.904;2023-06-22T00:06:31;18.23;;;16.43;;
8714;SDS011;4394;51.208;8.904;2023-06-22T00:09:19;17.97;;;16.30;;
8714;SDS011;4394;51.208;8.904;2023-06-22T00:12:07;18.87;;;16.97;;
8714;SDS011;4394;51.208;8.904;2023-06-22T00:14:56;18.23;;;16.40;;
8714;SDS011;4394;51.208;8.904;2023-06-22T00:17:44;18.40;;;16.60;;
8714;SDS011;4394;51.208;8.904;2023-06-22T00:20:34;18.17;;;16.37;;
8714;SDS011;4394;51.208;8.904;2023-06-22T00:23:23;18.73;;;16.17;;
8714;SDS011;4394;51.208;8.904;2023-06-22T00:26:11;17.47;;;15.83;;
8714;SDS011;4394;51.208;8.904;2023-06-22T00:28:59;20.83;;;17.80;;
8714;SDS011;4394;51.208;8.904;2023-06-22T00:31:47;20.17;;;18.17;;
8714;SDS011;4394;51.208;8.904;2023-06-22T00:34:35;19.20;;;17.30;;
8714;SDS011;4394;51.208;8.904;2023-06-22T00:37:26;22.67;;;18.53;;
8714;SDS011;4394;51.208;8.904;2023-06-22T00:40:15;20.07;;;17.97;;
8714;SDS011;4394;51.208;8.904;2023-06-22T00:43:08;19.70;;;17.60;;
8714;SDS011;4394;51.208;8.904;2023-06-22T00:45:56;18.50;;;16.70;;
8714;SDS011;4394;51.208;8.904;2023-06-22T00:48:44;20.37;;;18.33;;
8714;SDS011;4394;51.208;8.904;2023-06-22T00:51:32;22.67;;;20.50;;
8714;SDS011;4394;51.208;8.904;2023-06-22T00:54:21;19.27;;;17.27;;
8714;SDS011;4394;51.208;8.904;2023-06-22T00:57:11;19.20;;;17.20;;
8714;SDS011;4394;51.208;8.904;2023-06-22T01:00:02;19.10;;;17.23;;
8714;SDS011;4394;51.208;8.904;2023-06-22T01:02:53;19.57;;;17.57;;
8714;SDS011;4394;51.208;8.904;2023-06-22T01:05:42;18.47;;;16.57;;
8714;SDS011;4394;51.208;8.904;2023-06-22T01:08:34;18.37;;;16.47;;
8714;SDS011;4394;51.208;8.904;2023-06-22T01:11:37;18.93;;;17.03;;
8714;SDS011;4394;51.208;8.904;2023-06-22T01:14:34;19.47;;;17.57;;
8714;SDS011;4394;51.208;8.904;2023-06-22T01:17:27;20.30;;;18.33;;
8714;SDS011;4394;51.208;8.904;2023-06-22T01:20:16;19.83;;;17.83;;
8714;SDS011;4394;51.208;8.904;2023-06-22T01:23:09;20.07;;;18.13;;
8714;SDS011;4394;51.208;8.904;2023-06-22T01:26:06;18.87;;;16.97;;
8714;SDS011;4394;51.208;8.904;2023-06-22T01:29:05;18.97;;;17.07;;
8714;SDS011;4394;51.208;8.904;2023-06-22T01:31:55;20.20;;;18.20;;
8714;SDS011;4394;51.208;8.904;2023-06-22T01:34:44;19.57;;;17.67;;
8714;SDS011;4394;51.208;8.904;2023-06-22T01:37:35;19.43;;;17.63;;
8714;SDS011;4394;51.208;8.904;2023-06-22T01:40:24;20.57;;;18.53;;
8714;SDS011;4394;51.208;8.904;2023-06-22T01:43:14;21.43;;;19.27;;
8714;SDS011;4394;51.208;8.904;2023-06-22T01:46:04;22.77;;;20.37;;
8714;SDS011;4394;51.208;8.904;2023-06-22T01:48:52;23.10;;;20.70;;
8714;SDS011;4394;51.208;8.904;2023-06-22T01:51:41;22.23;;;20.03;;
8714;SDS011;4394;51.208;8.904;2023-06-22T01:54:29;20.70;;;18.63;;
8714;SDS011;4394;51.208;8.904;2023-06-22T01:57:17;23.13;;;20.67;;
8714;SDS011;4394;51.208;8.904;2023-06-22T02:00:07;23.07;;;20.67;;
8714;SDS011;4394;51.208;8.904;2023-06-22T02:03:01;21.53;;;19.20;;
8714;SDS011;4394;51.208;8.904;2023-06-22T02:05:56;22.53;;;20.13;;
8714;SDS011;4394;51.208;8.904;2023-06-22T02:08:51;22.63;;;20.40;;
8714;SDS011;4394;51.208;8.904;2023-06-22T02:11:44;22.47;;;20.17;;
8714;SDS011;4394;51.208;8.904;2023-06-22T02:14:34;22.23;;;19.93;;
8714;SDS011;4394;51.208;8.904;2023-06-22T02:17:25;20.00;;;18.00;;
8714;SDS011;4394;51.208;8.904;2023-06-22T02:20:15;19.37;;;17.53;;
8714;SDS011;4394;51.208;8.904;2023-06-22T02:23:03;19.67;;;17.67;;
8714;SDS011;4394;51.208;8.904;2023-06-22T02:25:52;19.73;;;17.83;;
8714;SDS011;4394;51.208;8.904;2023-06-22T02:28:40;19.87;;;17.97;;
8714;SDS011;4394;51.208;8.904;2023-06-22T02:31:28;19.17;;;17.30;;
8714;SDS011;4394;51.208;8.904;2023-06-22T02:34:17;18.47;;;16.57;;
8714;SDS011;4394;51.208;8.904;2023-06-22T02:37:06;19.77;;;17.63;;
8714;SDS011;4394;51.208;8.904;2023-06-22T02:39:57;20.93;;;18.83;;
8714;SDS011;4394;51.208;8.904;2023-06-22T02:42:45;20.70;;;18.57;;
8714;SDS011;4394;51.208;8.904;2023-06-22T02:45:33;20.40;;;18.30;;
8714;SDS011;4394;51.208;8.904;2023-06-22T02:48:21;23.40;;;19.47;;
8714;SDS011;4394;51.208;8.904;2023-06-22T02:51:09;20.83;;;18.73;;
8714;SDS011;4394;51.208;8.904;2023-06-22T02:53:59;20.73;;;18.63;;
8714;SDS011;4394;51.208;8.904;2023-06-22T02:56:47;20.70;;;18.60;;
8714;SDS011;4394;51.208;8.904;2023-06-22T02:59:37;20.10;;;17.97;;
8714;SDS011;4394;51.208;8.904;2023-06-22T03:02:27;19.67;;;17.63;;
8714;SDS011;4394;51.208;8.904;2023-06-22T03:05:15;19.63;;;17.70;;
8714;SDS011;4394;51.208;8.904;2023-06-22T03:08:04;18.70;;;16.90;;
8714;SDS011;4394;51.208;8.904;2023-06-22T03:10:54;19.57;;;17.07;;
8714;SDS011;4394;51.208;8.904;2023-06-22T03:13:42;20.27;;;18.03;;
8714;SDS011;4394;51.208;8.904;2023-06-22T03:16:32;19.73;;;17.63;;
8714;SDS011;4394;51.208;8.904;2023-06-22T03:19:20;20.40;;;17.43;;
8714;SDS011;4394;51.208;8.904;2023-06-22T03:22:08;20.83;;;18.53;;
8714;SDS011;4394;51.208;8.904;2023-06-22T03:24:59;20.33;;;18.27;;
8714;SDS011;4394;51.208;8.904;2023-06-22T03:27:49;24.33;;;19.10;;
8714;SDS011;4394;51.208;8.904;2023-06-22T03:30:37;22.13;;;19.90;;
8714;SDS011;4394;51.208;8.904;2023-06-22T03:33:25;22.83;;;19.53;;
8714;SDS011;4394;51.208;8.904;2023-06-22T03:36:13;22.17;;;19.77;;
8714;SDS011;4394;51.208;8.904;2023-06-22T03:39:03;23.83;;;20.40;;
8714;SDS011;4394;51.208;8.904;2023-06-22T03:41:51;23.07;;;19.90;;
8714;SDS011;4394;51.208;8.904;2023-06-22T03:44:40;20.80;;;18.60;;
8714;SDS011;4394;51.208;8.904;2023-06-22T03:47:28;20.93;;;18.73;;
8714;SDS011;4394;51.208;8.904;2023-06-22T03:50:17;20.57;;;18.50;;
8714;SDS011;4394;51.208;8.904;2023-06-22T03:53:06;22.57;;;19.87;;
8714;SDS011;4394;51.208;8.904;2023-06-22T03:55:54;22.07;;;19.77;;
8714;SDS011;4394;51.208;8.904;2023-06-22T03:58:42;21.57;;;19.47;;
8714;SDS011;4394;51.208;8.904;2023-06-22T04:01:32;20.87;;;18.47;;
8714;SDS011;4394;51.208;8.904;2023-06-22T04:04:20;22.00;;;19.27;;
8714;SDS011;4394;51.208;8.904;2023-06-22T04:07:09;24.77;;;22.37;;
8714;SDS011;4394;51.208;8.904;2023-06-22T04:09:57;22.53;;;20.10;;
8714;SDS011;4394;51.208;8.904;2023-06-22T04:12:45;20.37;;;18.37;;
8714;SDS011;4394;51.208;8.904;2023-06-22T04:15:33;20.20;;;18.10;;
8714;SDS011;4394;51.208;8.904;2023-06-22T04:18:22;20.87;;;18.67;;
8714;SDS011;4394;51.208;8.904;2023-06-22T04:21:11;20.00;;;17.97;;
8714;SDS011;4394;51.208;8.904;2023-06-22T04:23:59;20.33;;;18.33;;
8714;SDS011;4394;51.208;8.904;2023-06-22T04:26:47;20.20;;;18.17;;
8714;SDS011;4394;51.208;8.904;2023-06-22T04:29:35;22.10;;;17.50;;
8714;SDS011;4394;51.208;8.904;2023-06-22T04:32:24;20.00;;;16.97;;
8714;SDS011;4394;51.208;8.904;2023-06-22T04:35:13;19.47;;;17.47;;
8714;SDS011;4394;51.208;8.904;2023-06-22T04:38:02;19.20;;;16.73;;
8714;SDS011;4394;51.208;8.904;2023-06-22T04:40:50;23.17;;;18.13;;
8714;SDS011;4394;51.208;8.904;2023-06-22T04:43:39;19.73;;;17.73;;
8714;SDS011;4394;51.208;8.904;2023-06-22T04:46:27;18.97;;;17.07;;
8714;SDS011;4394;51.208;8.904;2023-06-22T04:49:15;18.37;;;16.47;;
8714;SDS011;4394;51.208;8.904;2023-06-22T04:52:05;18.40;;;16.50;;
8714;SDS011;4394;51.208;8.904;2023-06-22T04:54:55;18.43;;;16.07;;
8714;SDS011;4394;51.208;8.904;2023-06-22T04:57:46;18.97;;;17.10;;
8714;SDS011;4394;51.208;8.904;2023-06-22T05:00:35;17.73;;;15.93;;
8714;SDS011;4394;51.208;8.904;2023-06-22T05:03:24;17.93;;;16.10;;
8714;SDS011;4394;51.208;8.904;2023-06-22T05:06:13;21.00;;;18.80;;
8714;SDS011;4394;51.208;8.904;2023-06-22T05:09:03;23.53;;;19.93;;
8714;SDS011;4394;51.208;8.904;2023-06-22T05:11:52;24.10;;;21.20;;
8714;SDS011;4394;51.208;8.904;2023-06-22T05:14:40;24.53;;;22.00;;
8714;SDS011;4394;51.208;8.904;2023-06-22T05:17:28;25.70;;;21.53;;
8714;SDS011;4394;51.208;8.904;2023-06-22T05:20:16;25.40;;;21.33;;
8714;SDS011;4394;51.208;8.904;2023-06-22T05:23:04;25.87;;;20.57;;
8714;SDS011;4394;51.208;8.904;2023-06-22T05:25:54;22.43;;;20.03;;
8714;SDS011;4394;51.208;8.904;2023-06-22T05:28:44;20.57;;;18.37;;
8714;SDS011;4394;51.208;8.904;2023-06-22T05:31:33;20.27;;;18.07;;
8714;SDS011;4394;51.208;8.904;2023-06-22T05:34:21;21.37;;;19.07;;
8714;SDS011;4394;51.208;8.904;2023-06-22T05:37:09;21.07;;;18.87;;
8714;SDS011;4394;51.208;8.904;2023-06-22T05:39:59;26.02;;;22.77;;
8714;SDS011;4394;51.208;8.904;2023-06-22T05:42:48;25.27;;;22.57;;
8714;SDS011;4394;51.208;8.904;2023-06-22T05:45:36;23.40;;;21.00;;
8714;SDS011;4394;51.208;8.904;2023-06-22T05:48:24;24.87;;;21.97;;
8714;SDS011;4394;51.208;8.904;2023-06-22T05:51:12;25.83;;;21.83;;
8714;SDS011;4394;51.208;8.904;2023-06-22T05:54:01;29.03;;;25.00;;
8714;SDS011;4394;51.208;8.904;2023-06-22T05:56:49;26.83;;;23.93;;
8714;SDS011;4394;51.208;8.904;2023-06-22T05:59:38;30.23;;;25.20;;
8714;SDS011;4394;51.208;8.904;2023-06-22T06:02:26;32.53;;;24.83;;
8714;SDS011;4394;51.208;8.904;2023-06-22T06:05:14;32.30;;;25.00;;
8714;SDS011;4394;51.208;8.904;2023-06-22T06:08:03;29.50;;;25.50;;
8714;SDS011;4394;51.208;8.904;2023-06-22T06:10:52;28.27;;;24.50;;
8714;SDS011;4394;51.208;8.904;2023-06-22T06:13:41;27.40;;;24.60;;
8714;SDS011;4394;51.208;8.904;2023-06-22T06:16:30;25.27;;;22.67;;
8714;SDS011;4394;51.208;8.904;2023-06-22T06:19:19;24.30;;;21.73;;
8714;SDS011;4394;51.208;8.904;2023-06-22T06:22:07;24.20;;;21.70;;
8714;SDS011;4394;51.208;8.904;2023-06-22T06:24:55;23.93;;;21.53;;
8714;SDS011;4394;51.208;8.904;2023-06-22T06:27:43;22.63;;;20.23;;
8714;SDS011;4394;51.208;8.904;2023-06-22T06:30:32;23.43;;;21.00;;
8714;SDS011;4394;51.208;8.904;2023-06-22T06:33:22;24.17;;;21.77;;
8714;SDS011;4394;51.208;8.904;2023-06-22T06:36:11;24.17;;;21.57;;
8714;SDS011;4394;51.208;8.904;2023-06-22T06:38:59;22.77;;;20.47;;
8714;SDS011;4394;51.208;8.904;2023-06-22T06:41:48;23.27;;;20.30;;
8714;SDS011;4394;51.208;8.904;2023-06-22T06:44:36;21.10;;;18.80;;
8714;SDS011;4394;51.208;8.904;2023-06-22T06:47:24;18.30;;;16.40;;
8714;SDS011;4394;51.208;8.904;2023-06-22T06:50:13;18.40;;;16.60;;
8714;SDS011;4394;51.208;8.904;2023-06-22T06:53:01;19.37;;;17.37;;
8714;SDS011;4394;51.208;8.904;2023-06-22T06:55:49;18.43;;;16.63;;
8714;SDS011;4394;51.208;8.904;2023-06-22T06:58:40;16.13;;;14.47;;
8714;SDS011;4394;51.208;8.904;2023-06-22T07:01:31;14.93;;;13.33;;
8714;SDS011;4394;51.208;8.904;2023-06-22T07:04:20;13.73;;;12.43;;
8714;SDS011;4394;51.208;8.904;2023-06-22T07:07:09;14.53;;;10.63;;
8714;SDS011;4394;51.208;8.904;2023-06-22T07:09:57;11.60;;;10.60;;
8714;SDS011;4394;51.208;8.904;2023-06-22T07:12:45;10.37;;;9.27;;
8714;SDS011;4394;51.208;8.904;2023-06-22T07:15:33;11.23;;;9.93;;
8714;SDS011;4394;51.208;8.904;2023-06-22T07:18:21;9.77;;;8.87;;
8714;SDS011;4394;51.208;8.904;2023-06-22T07:21:09;10.50;;;9.40;;
8714;SDS011;4394;51.208;8.904;2023-06-22T07:23:59;10.37;;;9.37;;
8714;SDS011;4394;51.208;8.904;2023-06-22T07:26:47;10.07;;;9.07;;
8714;SDS011;4394;51.208;8.904;2023-06-22T07:29:36;10.97;;;9.97;;
8714;SDS011;4394;51.208;8.904;2023-06-22T07:32:26;10.70;;;9.70;;
8714;SDS011;4394;51.208;8.904;2023-06-22T07:35:14;10.60;;;9.60;;
8714;SDS011;4394;51.208;8.904;2023-06-22T07:38:02;11.07;;;9.97;;
8714;SDS011;4394;51.208;8.904;2023-06-22T07:40:53;11.50;;;10.40;;
8714;SDS011;4394;51.208;8.904;2023-06-22T07:43:41;10.60;;;9.60;;
8714;SDS011;4394;51.208;8.904;2023-06-22T07:46:29;11.10;;;10.00;;
8714;SDS011;4394;51.208;8.904;2023-06-22T07:49:17;12.50;;;11.10;;
8714;SDS011;4394;51.208;8.904;2023-06-22T07:52:05;10.20;;;9.30;;
8714;SDS011;4394;51.208;8.904;2023-06-22T07:54:54;12.43;;;11.20;;
8714;SDS011;4394;51.208;8.904;2023-06-22T07:57:43;12.43;;;11.33;;
8714;SDS011;4394;51.208;8.904;2023-06-22T08:00:31;12.53;;;11.23;;
8714;SDS011;4394;51.208;8.904;2023-06-22T08:03:22;15.82;;;14.35;;
8714;SDS011;4394;51.208;8.904;2023-06-22T08:06:10;14.27;;;12.93;;
8714;SDS011;4394;51.208;8.904;2023-06-22T08:08:58;14.07;;;12.67;;
8714;SDS011;4394;51.208;8.904;2023-06-22T08:11:47;12.20;;;10.87;;
8714;SDS011;4394;51.208;8.904;2023-06-22T08:14:37;13.07;;;11.90;;
8714;SDS011;4394;51.208;8.904;2023-06-22T08:17:26;11.67;;;10.57;;
8714;SDS011;4394;51.208;8.904;2023-06-22T08:20:14;15.87;;;14.27;;
8714;SDS011;4394;51.208;8.904;2023-06-22T08:23:02;13.47;;;12.17;;
8714;SDS011;4394;51.208;8.904;2023-06-22T08:25:52;13.77;;;12.37;;
8714;SDS011;4394;51.208;8.904;2023-06-22T08:28:40;14.00;;;12.70;;
8714;SDS011;4394;51.208;8.904;2023-06-22T08:31:30;12.83;;;11.63;;
8714;SDS011;4394;51.208;8.904;2023-06-22T08:34:18;13.33;;;11.43;;
8714;SDS011;4394;51.208;8.904;2023-06-22T08:37:09;16.00;;;14.40;;
8714;SDS011;4394;51.208;8.904;2023-06-22T08:40:00;13.50;;;12.30;;
8714;SDS011;4394;51.208;8.904;2023-06-22T08:42:50;13.67;;;12.27;;
8714;SDS011;4394;51.208;8.904;2023-06-22T08:45:38;12.33;;;11.23;;
8714;SDS011;4394;51.208;8.904;2023-06-22T08:48:29;12.65;;;11.55;;
8714;SDS011;4394;51.208;8.904;2023-06-22T08:51:17;12.27;;;11.07;;
8714;SDS011;4394;51.208;8.904;2023-06-22T08:54:05;13.30;;;12.05;;
8714;SDS011;4394;51.208;8.904;2023-06-22T08:56:53;11.50;;;10.50;;
8714;SDS011;4394;51.208;8.904;2023-06-22T08:59:41;12.13;;;10.95;;
8714;SDS011;4394;51.208;8.904;2023-06-22T09:02:29;12.70;;;11.43;;
8714;SDS011;4394;51.208;8.904;2023-06-22T09:05:19;11.93;;;10.82;;
8714;SDS011;4394;51.208;8.904;2023-06-22T09:08:08;10.07;;;9.18;;
8714;SDS011;4394;51.208;8.904;2023-06-22T09:10:56;10.57;;;9.57;;
8714;SDS011;4394;51.208;8.904;2023-06-22T09:13:44;9.73;;;8.70;;
8714;SDS011;4394;51.208;8.904;2023-06-22T09:16:33;10.13;;;9.07;;
8714;SDS011;4394;51.208;8.904;2023-06-22T09:19:21;10.57;;;9.60;;
8714;SDS011;4394;51.208;8.904;2023-06-22T09:22:11;11.90;;;10.88;;
8714;SDS011;4394;51.208;8.904;2023-06-22T09:24:59;9.93;;;8.93;;
8714;SDS011;4394;51.208;8.904;2023-06-22T09:27:47;10.20;;;9.35;;
8714;SDS011;4394;51.208;8.904;2023-06-22T09:30:35;12.07;;;10.00;;
8714;SDS011;4394;51.208;8.904;2023-06-22T09:33:23;10.68;;;9.68;;
8714;SDS011;4394;51.208;8.904;2023-06-22T09:36:11;10.32;;;9.43;;
8714;SDS011;4394;51.208;8.904;2023-06-22T09:39:00;9.70;;;8.80;;
8714;SDS011;4394;51.208;8.904;2023-06-22T09:41:52;10.15;;;9.25;;
8714;SDS011;4394;51.208;8.904;2023-06-22T09:44:40;10.27;;;9.35;;
8714;SDS011;4394;51.208;8.904;2023-06-22T09:47:28;10.10;;;9.20;;
8714;SDS011;4394;51.208;8.904;2023-06-22T09:50:16;9.85;;;8.93;;
8714;SDS011;4394;51.208;8.904;2023-06-22T09:53:05;10.45;;;9.48;;
8714;SDS011;4394;51.208;8.904;2023-06-22T09:55:54;11.57;;;10.48;;
8714;SDS011;4394;51.208;8.904;2023-06-22T09:58:43;10.00;;;9.10;;
8714;SDS011;4394;51.208;8.904;2023-06-22T10:01:32;9.32;;;8.52;;
8714;SDS011;4394;51.208;8.904;2023-06-22T10:04:20;11.35;;;10.10;;
8714;SDS011;4394;51.208;8.904;2023-06-22T10:07:09;9.43;;;8.60;;
8714;SDS011;4394;51.208;8.904;2023-06-22T10:09:57;10.15;;;9.25;;
8714;SDS011;4394;51.208;8.904;2023-06-22T10:12:47;10.63;;;9.73;;
8714;SDS011;4394;51.208;8.904;2023-06-22T10:15:41;10.48;;;9.52;;
8714;SDS011;4394;51.208;8.904;2023-06-22T10:18:32;10.07;;;9.13;;
8714;SDS011;4394;51.208;8.904;2023-06-22T10:21:20;11.07;;;9.98;;
8714;SDS011;4394;51.208;8.904;2023-06-22T10:24:08;10.18;;;8.98;;
8714;SDS011;4394;51.208;8.904;2023-06-22T10:26:56;10.25;;;9.35;;
8714;SDS011;4394;51.208;8.904;2023-06-22T10:29:45;10.38;;;9.52;;
8714;SDS011;4394;51.208;8.904;2023-06-22T10:32:34;11.27;;;10.30;;
8714;SDS011;4394;51.208;8.904;2023-06-22T10:35:23;10.52;;;9.63;;
8714;SDS011;4394;51.208;8.904;2023-06-22T10:38:11;10.77;;;9.77;;
8714;SDS011;4394;51.208;8.904;2023-06-22T10:41:00;11.15;;;9.70;;
8714;SDS011;4394;51.208;8.904;2023-06-22T10:43:48;10.90;;;9.90;;
8714;SDS011;4394;51.208;8.904;2023-06-22T10:46:38;10.63;;;9.63;;
8714;SDS011;4394;51.208;8.904;2023-06-22T10:49:26;10.57;;;9.60;;
8714;SDS011;4394;51.208;8.904;2023-06-22T10:52:14;9.85;;;9.00;;
8714;SDS011;4394;51.208;8.904;2023-06-22T10:55:02;11.13;;;9.75;;
8714;SDS011;4394;51.208;8.904;2023-06-22T10:57:51;10.38;;;9.38;;
8714;SDS011;4394;51.208;8.904;2023-06-22T11:00:39;10.38;;;9.57;;
8714;SDS011;4394;51.208;8.904;2023-06-22T11:03:29;10.18;;;9.25;;
8714;SDS011;4394;51.208;8.904;2023-06-22T11:06:17;10.60;;;9.52;;
8714;SDS011;4394;51.208;8.904;2023-06-22T11:09:05;10.48;;;9.50;;
8714;SDS011;4394;51.208;8.904;2023-06-22T11:11:57;9.15;;;8.32;;
8714;SDS011;4394;51.208;8.904;2023-06-22T11:14:46;9.68;;;8.82;;
8714;SDS011;4394;51.208;8.904;2023-06-22T11:17:36;9.90;;;9.00;;
8714;SDS011;4394;51.208;8.904;2023-06-22T11:20:26;9.43;;;8.60;;
8714;SDS011;4394;51.208;8.904;2023-06-22T11:23:14;9.20;;;8.30;;
8714;SDS011;4394;51.208;8.904;2023-06-22T11:26:03;9.07;;;8.18;;
8714;SDS011;4394;51.208;8.904;2023-06-22T11:28:51;9.85;;;8.85;;
8714;SDS011;4394;51.208;8.904;2023-06-22T11:31:38;10.02;;;8.82;;
8714;SDS011;4394;51.208;8.904;2023-06-22T11:34:29;9.80;;;8.82;;
8714;SDS011;4394;51.208;8.904;2023-06-22T11:37:18;9.00;;;8.20;;
8714;SDS011;4394;51.208;8.904;2023-06-22T11:40:07;10.93;;;8.48;;
8714;SDS011;4394;51.208;8.904;2023-06-22T11:42:56;9.10;;;8.23;;
8714;SDS011;4394;51.208;8.904;2023-06-22T11:45:44;9.18;;;8.27;;
8714;SDS011;4394;51.208;8.904;2023-06-22T11:48:32;8.77;;;7.95;;
8714;SDS011;4394;51.208;8.904;2023-06-22T11:51:21;9.50;;;8.50;;
8714;SDS011;4394;51.208;8.904;2023-06-22T11:54:11;8.77;;;8.00;;
8714;SDS011;4394;51.208;8.904;2023-06-22T11:56:59;10.35;;;8.38;;
8714;SDS011;4394;51.208;8.904;2023-06-22T11:59:47;9.00;;;8.25;;
8714;SDS011;4394;51.208;8.904;2023-06-22T12:02:35;9.90;;;8.90;;
8714;SDS011;4394;51.208;8.904;2023-06-22T12:05:24;8.75;;;7.90;;
8714;SDS011;4394;51.208;8.904;2023-06-22T12:08:12;9.75;;;8.77;;
8714;SDS011;4394;51.208;8.904;2023-06-22T12:11:02;8.95;;;8.05;;
8714;SDS011;4394;51.208;8.904;2023-06-22T12:13:50;8.50;;;7.72;;
8714;SDS011;4394;51.208;8.904;2023-06-22T12:16:38;8.80;;;8.07;;
8714;SDS011;4394;51.208;8.904;2023-06-22T12:19:26;9.20;;;8.40;;
8714;SDS011;4394;51.208;8.904;2023-06-22T12:22:14;9.20;;;8.27;;
8714;SDS011;4394;51.208;8.904;2023-06-22T12:25:02;9.05;;;8.27;;
8714;SDS011;4394;51.208;8.904;2023-06-22T12:27:51;9.50;;;8.55;;
8714;SDS011;4394;51.208;8.904;2023-06-22T12:30:40;9.07;;;8.27;;
8714;SDS011;4394;51.208;8.904;2023-06-22T12:33:28;9.05;;;8.35;;
8714;SDS011;4394;51.208;8.904;2023-06-22T12:36:16;9.15;;;8.25;;
8714;SDS011;4394;51.208;8.904;2023-06-22T12:39:04;9.43;;;8.52;;
8714;SDS011;4394;51.208;8.904;2023-06-22T12:41:52;8.88;;;8.13;;
8714;SDS011;4394;51.208;8.904;2023-06-22T12:44:42;8.60;;;7.90;;
8714;SDS011;4394;51.208;8.904;2023-06-22T12:47:30;9.27;;;8.38;;
8714;SDS011;4394;51.208;8.904;2023-06-22T12:50:18;8.52;;;7.82;;
8714;SDS011;4394;51.208;8.904;2023-06-22T12:53:07;9.50;;;8.50;;
8714;SDS011;4394;51.208;8.904;2023-06-22T12:55:55;8.50;;;7.80;;
8714;SDS011;4394;51.208;8.904;2023-06-22T12:58:43;8.43;;;7.68;;
8714;SDS011;4394;51.208;8.904;2023-06-22T13:01:32;8.63;;;7.80;;
8714;SDS011;4394;51.208;8.904;2023-06-22T13:04:20;9.85;;;8.55;;
8714;SDS011;4394;51.208;8.904;2023-06-22T13:07:08;9.85;;;8.90;;
8714;SDS011;4394;51.208;8.904;2023-06-22T13:10:08;9.32;;;8.50;;
8714;SDS011;4394;51.208;8.904;2023-06-22T13:12:57;9.68;;;8.88;;
8714;SDS011;4394;51.208;8.904;2023-06-22T13:15:47;10.15;;;9.25;;
8714;SDS011;4394;51.208;8.904;2023-06-22T13:18:36;10.80;;;9.88;;
8714;SDS011;4394;51.208;8.904;2023-06-22T13:21:24;9.98;;;9.15;;
8714;SDS011;4394;51.208;8.904;2023-06-22T13:24:12;10.75;;;9.75;;
8714;SDS011;4394;51.208;8.904;2023-06-22T13:27:00;11.48;;;10.38;;
8714;SDS011;4394;51.208;8.904;2023-06-22T13:29:48;10.57;;;9.60;;
8714;SDS011;4394;51.208;8.904;2023-06-22T13:32:37;11.45;;;10.38;;
8714;SDS011;4394;51.208;8.904;2023-06-22T13:35:29;12.63;;;10.15;;
8714;SDS011;4394;51.208;8.904;2023-06-22T13:38:18;12.23;;;10.88;;
8714;SDS011;4394;51.208;8.904;2023-06-22T13:41:06;11.27;;;10.18;;
8714;SDS011;4394;51.208;8.904;2023-06-22T13:43:54;19.27;;;12.48;;
8714;SDS011;4394;51.208;8.904;2023-06-22T13:46:43;20.52;;;13.15;;
8714;SDS011;4394;51.208;8.904;2023-06-22T13:49:31;16.25;;;13.38;;
8714;SDS011;4394;51.208;8.904;2023-06-22T13:52:21;16.67;;;14.05;;
8714;SDS011;4394;51.208;8.904;2023-06-22T13:55:09;13.55;;;7.13;;
8714;SDS011;4394;51.208;8.904;2023-06-22T13:57:57;10.35;;;4.97;;
8714;SDS011;4394;51.208;8.904;2023-06-22T14:00:45;10.63;;;5.43;;
8714;SDS011;4394;51.208;8.904;2023-06-22T14:03:34;10.80;;;5.70;;
8714;SDS011;4394;51.208;8.904;2023-06-22T14:06:22;10.63;;;4.50;;
8714;SDS011;4394;51.208;8.904;2023-06-22T14:09:12;6.80;;;3.90;;
8714;SDS011;4394;51.208;8.904;2023-06-22T14:12:02;8.80;;;3.90;;
8714;SDS011;4394;51.208;8.904;2023-06-22T14:14:51;10.67;;;3.80;;
8714;SDS011;4394;51.208;8.904;2023-06-22T14:17:39;8.20;;;3.60;;
8714;SDS011;4394;51.208;8.904;2023-06-22T14:20:27;7.20;;;3.73;;
8714;SDS011;4394;51.208;8.904;2023-06-22T14:23:15;5.90;;;3.40;;
8714;SDS011;4394;51.208;8.904;2023-06-22T14:26:05;5.33;;;2.80;;
8714;SDS011;4394;51.208;8.904;2023-06-22T14:28:53;5.27;;;2.37;;
8714;SDS011;4394;51.208;8.904;2023-06-22T14:31:44;4.80;;;2.40;;
8714;SDS011;4394;51.208;8.904;2023-06-22T14:34:33;6.33;;;2.73;;
8714;SDS011;4394;51.208;8.904;2023-06-22T14:37:25;5.57;;;2.80;;
8714;SDS011;4394;51.208;8.904;2023-06-22T14:40:13;6.43;;;3.10;;
8714;SDS011;4394;51.208;8.904;2023-06-22T14:43:03;3.97;;;2.60;;
8714;SDS011;4394;51.208;8.904;2023-06-22T14:45:51;5.40;;;2.53;;
8714;SDS011;4394;51.208;8.904;2023-06-22T14:48:40;5.40;;;2.60;;
8714;SDS011;4394;51.208;8.904;2023-06-22T14:51:28;7.27;;;3.03;;
8714;SDS011;4394;51.208;8.904;2023-06-22T14:54:16;4.97;;;2.90;;
8714;SDS011;4394;51.208;8.904;2023-06-22T14:57:04;7.73;;;2.90;;
8714;SDS011;4394;51.208;8.904;2023-06-22T14:59:54;5.17;;;3.27;;
8714;SDS011;4394;51.208;8.904;2023-06-22T15:02:42;7.17;;;3.30;;
8714;SDS011;4394;51.208;8.904;2023-06-22T15:05:30;6.97;;;3.10;;
8714;SDS011;4394;51.208;8.904;2023-06-22T15:08:18;8.23;;;3.27;;
8714;SDS011;4394;51.208;8.904;2023-06-22T15:11:07;6.47;;;3.33;;
8714;SDS011;4394;51.208;8.904;2023-06-22T15:13:57;5.53;;;3.43;;
8714;SDS011;4394;51.208;8.904;2023-06-22T15:16:48;7.17;;;4.20;;
8714;SDS011;4394;51.208;8.904;2023-06-22T15:19:36;10.10;;;4.73;;
8714;SDS011;4394;51.208;8.904;2023-06-22T15:22:24;9.77;;;5.13;;
8714;SDS011;4394;51.208;8.904;2023-06-22T15:25:12;9.90;;;4.50;;
8714;SDS011;4394;51.208;8.904;2023-06-22T15:28:00;10.33;;;4.83;;
8714;SDS011;4394;51.208;8.904;2023-06-22T15:30:49;10.77;;;4.90;;
8714;SDS011;4394;51.208;8.904;2023-06-22T15:33:39;13.60;;;4.80;;
8714;SDS011;4394;51.208;8.904;2023-06-22T15:36:28;8.37;;;4.60;;
8714;SDS011;4394;51.208;8.904;2023-06-22T15:39:16;8.20;;;4.27;;
8714;SDS011;4394;51.208;8.904;2023-06-22T15:42:04;10.40;;;4.73;;
8714;SDS011;4394;51.208;8.904;2023-06-22T15:44:53;10.70;;;5.23;;
8714;SDS011;4394;51.208;8.904;2023-06-22T15:47:41;10.73;;;6.57;;
8714;SDS011;4394;51.208;8.904;2023-06-22T15:50:31;8.33;;;6.23;;
8714;SDS011;4394;51.208;8.904;2023-06-22T15:53:19;13.27;;;5.80;;
8714;SDS011;4394;51.208;8.904;2023-06-22T15:56:07;12.70;;;6.57;;
8714;SDS011;4394;51.208;8.904;2023-06-22T15:58:56;10.87;;;7.50;;
8714;SDS011;4394;51.208;8.904;2023-06-22T16:01:44;11.37;;;7.87;;
8714;SDS011;4394;51.208;8.904;2023-06-22T16:04:32;10.97;;;8.73;;
8714;SDS011;4394;51.208;8.904;2023-06-22T16:07:22;10.27;;;7.90;;
8714;SDS011;4394;51.208;8.904;2023-06-22T16:10:10;6.20;;;5.60;;
8714;SDS011;4394;51.208;8.904;2023-06-22T16:13:00;7.67;;;5.47;;
8714;SDS011;4394;51.208;8.904;2023-06-22T16:15:48;10.37;;;5.53;;
8714;SDS011;4394;51.208;8.904;2023-06-22T16:18:37;8.47;;;6.33;;
8714;SDS011;4394;51.208;8.904;2023-06-22T16:21:26;7.47;;;6.10;;
8714;SDS011;4394;51.208;8.904;2023-06-22T16:24:16;6.60;;;5.80;;
8714;SDS011;4394;51.208;8.904;2023-06-22T16:27:04;8.77;;;6.77;;
8714;SDS011;4394;51.208;8.904;2023-06-22T16:29:53;8.60;;;7.57;;
8714;SDS011;4394;51.208;8.904;2023-06-22T16:32:49;11.57;;;10.37;;
8714;SDS011;4394;51.208;8.904;2023-06-22T16:35:38;12.47;;;11.20;;
8714;SDS011;4394;51.208;8.904;2023-06-22T16:38:27;14.23;;;11.83;;
8714;SDS011;4394;51.208;8.904;2023-06-22T16:41:17;12.33;;;10.23;;
8714;SDS011;4394;51.208;8.904;2023-06-22T16:44:06;9.93;;;5.13;;
8714;SDS011;4394;51.208;8.904;2023-06-22T16:46:54;2.43;;;2.00;;
8714;SDS011;4394;51.208;8.904;2023-06-22T16:49:42;1.73;;;1.57;;
8714;SDS011;4394;51.208;8.904;2023-06-22T16:52:30;2.07;;;1.23;;
8714;SDS011;4394;51.208;8.904;2023-06-22T16:55:18;1.73;;;1.20;;
8714;SDS011;4394;51.208;8.904;2023-06-22T16:58:10;2.97;;;1.50;;
8714;SDS011;4394;51.208;8.904;2023-06-22T17:01:02;2.67;;;1.33;;
8714;SDS011;4394;51.208;8.904;2023-06-22T17:03:57;2.93;;;1.17;;
8714;SDS011;4394;51.208;8.904;2023-06-22T17:06:53;3.33;;;1.40;;
8714;SDS011;4394;51.208;8.904;2023-06-22T17:09:45;3.87;;;1.40;;